sensor_id;sensor_type;location;lat;lon;timestamp;pressure;altitude;pressure_sealevel;temperature;humidity
49723;BME280;43484;43.608;1.458;2022-12-07T00:01:32;99807.13;;;8.86;100.00
49723;BME280;43484;43.608;1.458;2022-12-07T00:04:02;99797.06;;;8.89;100.00
49723;BME280;43484;43.608;1.458;2022-12-07T00:06:34;99801.13;;;8.84;100.00
49723;BME280;43484;43.608;1.458;2022-12-07T00:09:01;99792.75;;;8.88;100.00
49723;BME280;43484;43.608;1.458;2022-12-07T00:11:28;99791.38;;;8.98;100.00
49723;BME280;43484;43.608;1.458;2022-12-07T00:14:00;99786.94;;;8.92;100.00
49723;BME280;43484;43.608;1.458;2022-12-07T00:16:29;99785.13;;;8.89;100.00
49723;BME280;43484;43.608;1.458;2022-12-07T00:18:56;99776.53;;;8.87;100.00
49723;BME280;43484;43.608;1.458;2022-12-07T00:21:25;99778.16;;;8.84;100.00
49723;BME280;43484;43.608;1.458;2022-12-07T00:23:53;99779.66;;;8.79;100.00
49723;BME280;43484;43.608;1.458;2022-12-07T00:26:26;99775.50;;;8.82;100.00
49723;BME280;43484;43.608;1.458;2022-12-07T00:28:55;99780.75;;;8.85;100.00
49723;BME280;43484;43.608;1.458;2022-12-07T00:31:25;99773.09;;;8.85;100.00
49723;BME280;43484;43.608;1.458;2022-12-07T00:33:52;99772.91;;;8.81;100.00
49723;BME280;43484;43.608;1.458;2022-12-07T00:36:21;99767.63;;;8.76;100.00
49723;BME280;43484;43.608;1.458;2022-12-07T00:38:53;99770.47;;;8.84;100.00
49723;BME280;43484;43.608;1.458;2022-12-07T00:41:23;99767.78;;;8.81;100.00
49723;BME280;43484;43.608;1.458;2022-12-07T00:43:50;99763.38;;;8.75;100.00
49723;BME280;43484;43.608;1.458;2022-12-07T00:46:18;99768.56;;;8.78;100.00
49723;BME280;43484;43.608;1.458;2022-12-07T00:48:46;99767.69;;;8.78;100.00
49723;BME280;43484;43.608;1.458;2022-12-07T00:51:14;99761.69;;;8.77;100.00
49723;BME280;43484;43.608;1.458;2022-12-07T00:53:42;99755.47;;;8.69;100.00
49723;BME280;43484;43.608;1.458;2022-12-07T00:56:11;99750.47;;;8.72;100.00
49723;BME280;43484;43.608;1.458;2022-12-07T00:58:39;99751.28;;;8.71;100.00
49723;BME280;43484;43.608;1.458;2022-12-07T01:01:07;99742.59;;;8.66;100.00
49723;BME280;43484;43.608;1.458;2022-12-07T01:03:34;99746.78;;;8.64;100.00
49723;BME280;43484;43.608;1.458;2022-12-07T01:06:02;99746.56;;;8.58;100.00
49723;BME280;43484;43.608;1.458;2022-12-07T01:08:29;99742.41;;;8.60;100.00
49723;BME280;43484;43.608;1.458;2022-12-07T01:11:05;99747.81;;;8.69;100.00
49723;BME280;43484;43.608;1.458;2022-12-07T01:13:34;99738.31;;;8.65;100.00
49723;BME280;43484;43.608;1.458;2022-12-07T01:16:03;99733.06;;;8.62;100.00
49723;BME280;43484;43.608;1.458;2022-12-07T01:18:32;99739.50;;;8.51;100.00
49723;BME280;43484;43.608;1.458;2022-12-07T01:23:32;99737.09;;;8.56;100.00
49723;BME280;43484;43.608;1.458;2022-12-07T01:26:01;99732.97;;;8.59;100.00
49723;BME280;43484;43.608;1.458;2022-12-07T01:28:28;99739.72;;;8.57;100.00
49723;BME280;43484;43.608;1.458;2022-12-07T01:31:00;99726.19;;;8.60;100.00
49723;BME280;43484;43.608;1.458;2022-12-07T01:33:28;99732.00;;;8.56;100.00
49723;BME280;43484;43.608;1.458;2022-12-07T01:36:07;99728.47;;;8.52;100.00
49723;BME280;43484;43.608;1.458;2022-12-07T01:38:34;99730.31;;;8.56;100.00
49723;BME280;43484;43.608;1.458;2022-12-07T01:41:02;99732.88;;;8.56;100.00
49723;BME280;43484;43.608;1.458;2022-12-07T01:43:30;99739.88;;;8.62;100.00
49723;BME280;43484;43.608;1.458;2022-12-07T01:45:57;99747.59;;;8.63;100.00
49723;BME280;43484;43.608;1.458;2022-12-07T01:48:28;99740.91;;;8.67;100.00
49723;BME280;43484;43.608;1.458;2022-12-07T01:51:01;99746.06;;;8.68;100.00
49723;BME280;43484;43.608;1.458;2022-12-07T01:53:30;99752.06;;;8.69;100.00
49723;BME280;43484;43.608;1.458;2022-12-07T01:55:59;99757.38;;;8.75;100.00
49723;BME280;43484;43.608;1.458;2022-12-07T01:58:25;99755.66;;;8.74;100.00
49723;BME280;43484;43.608;1.458;2022-12-07T02:00:52;99757.19;;;8.69;100.00
49723;BME280;43484;43.608;1.458;2022-12-07T02:03:24;99764.06;;;8.71;100.00
49723;BME280;43484;43.608;1.458;2022-12-07T02:05:53;99757.38;;;8.75;100.00
49723;BME280;43484;43.608;1.458;2022-12-07T02:08:21;99755.50;;;8.95;100.00
49723;BME280;43484;43.608;1.458;2022-12-07T02:10:48;99758.75;;;8.89;100.00
49723;BME280;43484;43.608;1.458;2022-12-07T02:13:16;99759.28;;;8.80;100.00
49723;BME280;43484;43.608;1.458;2022-12-07T02:29:25;99754.81;;;8.75;100.00
49723;BME280;43484;43.608;1.458;2022-12-07T02:32:06;99745.25;;;8.69;100.00
49723;BME280;43484;43.608;1.458;2022-12-07T02:34:36;99741.72;;;8.66;100.00
49723;BME280;43484;43.608;1.458;2022-12-07T02:37:11;99745.44;;;8.74;100.00
49723;BME280;43484;43.608;1.458;2022-12-07T02:39:51;99741.22;;;8.76;100.00
49723;BME280;43484;43.608;1.458;2022-12-07T02:42:24;99737.09;;;8.79;100.00
49723;BME280;43484;43.608;1.458;2022-12-07T02:44:54;99735.22;;;8.74;100.00
49723;BME280;43484;43.608;1.458;2022-12-07T02:47:21;99735.28;;;8.75;100.00
49723;BME280;43484;43.608;1.458;2022-12-07T02:49:49;99733.47;;;8.73;100.00
49723;BME280;43484;43.608;1.458;2022-12-07T02:52:15;99728.19;;;8.68;100.00
49723;BME280;43484;43.608;1.458;2022-12-07T02:54:42;99725.75;;;8.71;100.00
49723;BME280;43484;43.608;1.458;2022-12-07T03:08:13;99728.41;;;8.74;100.00
49723;BME280;43484;43.608;1.458;2022-12-07T03:10:54;99726.78;;;8.76;100.00
49723;BME280;43484;43.608;1.458;2022-12-07T03:13:41;99726.72;;;8.75;100.00
49723;BME280;43484;43.608;1.458;2022-12-07T03:18:58;99737.81;;;8.75;100.00
49723;BME280;43484;43.608;1.458;2022-12-07T03:21:53;99735.28;;;8.75;100.00
49723;BME280;43484;43.608;1.458;2022-12-07T03:24:25;99736.06;;;8.74;100.00
49723;BME280;43484;43.608;1.458;2022-12-07T03:26:56;99738.63;;;8.74;100.00
49723;BME280;43484;43.608;1.458;2022-12-07T03:29:36;99731.94;;;8.54;100.00
49723;BME280;43484;43.608;1.458;2022-12-07T03:32:08;99732.44;;;8.68;100.00
49723;BME280;43484;43.608;1.458;2022-12-07T03:34:49;99730.31;;;8.56;100.00
49723;BME280;43484;43.608;1.458;2022-12-07T03:42:52;99728.81;;;8.61;100.00
49723;BME280;43484;43.608;1.458;2022-12-07T03:45:24;99724.53;;;8.60;100.00
49723;BME280;43484;43.608;1.458;2022-12-07T03:48:08;99726.84;;;8.54;100.00
49723;BME280;43484;43.608;1.458;2022-12-07T03:51:00;99721.97;;;8.60;100.00
49723;BME280;43484;43.608;1.458;2022-12-07T03:53:36;99715.88;;;8.57;100.00
49723;BME280;43484;43.608;1.458;2022-12-07T03:56:07;99713.38;;;8.58;100.00
49723;BME280;43484;43.608;1.458;2022-12-07T03:58:36;99710.81;;;8.58;100.00
49723;BME280;43484;43.608;1.458;2022-12-07T04:01:03;99705.34;;;8.48;100.00
49723;BME280;43484;43.608;1.458;2022-12-07T04:03:29;99703.56;;;8.45;100.00
49723;BME280;43484;43.608;1.458;2022-12-07T04:05:56;99704.25;;;8.41;100.00
49723;BME280;43484;43.608;1.458;2022-12-07T04:08:25;99702.78;;;8.48;100.00
49723;BME280;43484;43.608;1.458;2022-12-07T04:10:53;99693.84;;;8.59;100.00
49723;BME280;43484;43.608;1.458;2022-12-07T04:13:20;99697.41;;;8.64;100.00
49723;BME280;43484;43.608;1.458;2022-12-07T04:15:46;99698.25;;;8.64;100.00
49723;BME280;43484;43.608;1.458;2022-12-07T04:18:13;99700.91;;;8.67;100.00
49723;BME280;43484;43.608;1.458;2022-12-07T04:20:39;99702.66;;;8.68;100.00
49723;BME280;43484;43.608;1.458;2022-12-07T04:23:06;99702.66;;;8.68;100.00
49723;BME280;43484;43.608;1.458;2022-12-07T04:25:32;99695.88;;;8.69;100.00
49723;BME280;43484;43.608;1.458;2022-12-07T04:27:59;99696.03;;;8.73;100.00
49723;BME280;43484;43.608;1.458;2022-12-07T04:30:27;99688.28;;;8.70;100.00
49723;BME280;43484;43.608;1.458;2022-12-07T04:32:54;99692.94;;;8.82;100.00
49723;BME280;43484;43.608;1.458;2022-12-07T04:35:20;99695.44;;;8.80;100.00
49723;BME280;43484;43.608;1.458;2022-12-07T04:37:47;99698.75;;;8.78;100.00
49723;BME280;43484;43.608;1.458;2022-12-07T04:40:13;99687.53;;;8.74;100.00
49723;BME280;43484;43.608;1.458;2022-12-07T04:42:40;99688.38;;;8.73;100.00
49723;BME280;43484;43.608;1.458;2022-12-07T04:45:07;99693.63;;;8.78;100.00
49723;BME280;43484;43.608;1.458;2022-12-07T04:47:34;99693.47;;;8.73;100.00
49723;BME280;43484;43.608;1.458;2022-12-07T04:50:01;99697.06;;;8.78;100.00
49723;BME280;43484;43.608;1.458;2022-12-07T04:52:28;99690.06;;;8.73;100.00
49723;BME280;43484;43.608;1.458;2022-12-07T04:54:55;99693.47;;;8.73;100.00
49723;BME280;43484;43.608;1.458;2022-12-07T04:57:21;99688.88;;;8.63;100.00
49723;BME280;43484;43.608;1.458;2022-12-07T04:59:48;99687.41;;;8.70;100.00
49723;BME280;43484;43.608;1.458;2022-12-07T05:02:14;99690.06;;;8.73;100.00
49723;BME280;43484;43.608;1.458;2022-12-07T05:04:41;99688.28;;;8.70;100.00
49723;BME280;43484;43.608;1.458;2022-12-07T05:07:07;99684.28;;;8.53;100.00
49723;BME280;43484;43.608;1.458;2022-12-07T05:09:34;99689.56;;;8.59;100.00
49723;BME280;43484;43.608;1.458;2022-12-07T05:12:00;99682.09;;;8.64;100.00
49723;BME280;43484;43.608;1.458;2022-12-07T05:14:27;99679.69;;;8.68;100.00
49723;BME280;43484;43.608;1.458;2022-12-07T05:16:54;99688.28;;;8.70;100.00
49723;BME280;43484;43.608;1.458;2022-12-07T05:19:20;99685.69;;;8.69;100.00
49723;BME280;43484;43.608;1.458;2022-12-07T05:21:47;99677.50;;;8.54;100.00
49723;BME280;43484;43.608;1.458;2022-12-07T05:24:15;99682.19;;;8.67;100.00
49723;BME280;43484;43.608;1.458;2022-12-07T05:26:42;99676.34;;;8.71;100.00
49723;BME280;43484;43.608;1.458;2022-12-07T05:29:13;99679.03;;;8.74;100.00
49723;BME280;43484;43.608;1.458;2022-12-07T05:31:41;99675.06;;;8.82;100.00
49723;BME280;43484;43.608;1.458;2022-12-07T05:34:08;99678.25;;;8.76;100.00
49723;BME280;43484;43.608;1.458;2022-12-07T05:36:34;99673.16;;;8.76;100.00
49723;BME280;43484;43.608;1.458;2022-12-07T05:39:01;99665.59;;;8.79;100.00
49723;BME280;43484;43.608;1.458;2022-12-07T05:41:28;99663.84;;;8.78;100.00
49723;BME280;43484;43.608;1.458;2022-12-07T05:44:13;99662.94;;;8.76;100.00
49723;BME280;43484;43.608;1.458;2022-12-07T05:46:39;99662.00;;;8.74;100.00
49723;BME280;43484;43.608;1.458;2022-12-07T05:49:06;99670.59;;;8.76;100.00
49723;BME280;43484;43.608;1.458;2022-12-07T05:51:32;99668.88;;;8.75;100.00
49723;BME280;43484;43.608;1.458;2022-12-07T05:53:59;99672.28;;;8.76;100.00
49723;BME280;43484;43.608;1.458;2022-12-07T05:56:25;99671.44;;;8.75;100.00
49723;BME280;43484;43.608;1.458;2022-12-07T05:58:53;99673.16;;;8.76;100.00
49723;BME280;43484;43.608;1.458;2022-12-07T06:01:39;99668.97;;;8.78;100.00
49723;BME280;43484;43.608;1.458;2022-12-07T06:04:06;99666.00;;;8.66;100.00
49723;BME280;43484;43.608;1.458;2022-12-07T06:06:32;99658.47;;;8.71;100.00
49723;BME280;43484;43.608;1.458;2022-12-07T06:08:59;99665.50;;;8.76;100.00
49723;BME280;43484;43.608;1.458;2022-12-07T06:11:26;99667.38;;;8.57;100.00
49723;BME280;43484;43.608;1.458;2022-12-07T06:14:11;99663.53;;;8.69;100.00
49723;BME280;43484;43.608;1.458;2022-12-07T06:16:37;99653.59;;;8.77;100.00
49723;BME280;43484;43.608;1.458;2022-12-07T06:19:04;99656.63;;;8.65;100.00
49723;BME280;43484;43.608;1.458;2022-12-07T06:21:31;99657.50;;;8.67;100.00
49723;BME280;43484;43.608;1.458;2022-12-07T06:23:57;99650.78;;;8.69;100.00
49723;BME280;43484;43.608;1.458;2022-12-07T06:26:24;99642.25;;;8.69;100.00
49723;BME280;43484;43.608;1.458;2022-12-07T06:28:50;99641.53;;;8.73;100.00
49723;BME280;43484;43.608;1.458;2022-12-07T06:31:17;99646.53;;;8.70;100.00
49723;BME280;43484;43.608;1.458;2022-12-07T06:33:44;99645.66;;;8.69;100.00
49723;BME280;43484;43.608;1.458;2022-12-07T06:36:10;99637.84;;;8.65;100.00
49723;BME280;43484;43.608;1.458;2022-12-07T06:38:37;99642.88;;;8.62;100.00
49723;BME280;43484;43.608;1.458;2022-12-07T06:41:04;99642.03;;;8.63;100.00
49723;BME280;43484;43.608;1.458;2022-12-07T06:43:31;99630.94;;;8.62;100.00
49723;BME280;43484;43.608;1.458;2022-12-07T06:45:58;99627.50;;;8.60;100.00
49723;BME280;43484;43.608;1.458;2022-12-07T06:48:24;99633.50;;;8.62;100.00
49723;BME280;43484;43.608;1.458;2022-12-07T06:50:51;99623.47;;;8.67;100.00
49723;BME280;43484;43.608;1.458;2022-12-07T06:53:21;99626.03;;;8.67;100.00
49723;BME280;43484;43.608;1.458;2022-12-07T06:55:48;99630.25;;;8.66;100.00
49723;BME280;43484;43.608;1.458;2022-12-07T06:58:15;99623.38;;;8.64;100.00
49723;BME280;43484;43.608;1.458;2022-12-07T07:00:41;99623.03;;;8.55;100.00
49723;BME280;43484;43.608;1.458;2022-12-07T07:03:08;99619.72;;;8.57;100.00
49723;BME280;43484;43.608;1.458;2022-12-07T07:05:35;99619.16;;;8.66;100.00
49723;BME280;43484;43.608;1.458;2022-12-07T07:08:02;99616.59;;;8.66;100.00
49723;BME280;43484;43.608;1.458;2022-12-07T07:10:49;99619.94;;;8.63;100.00
49723;BME280;43484;43.608;1.458;2022-12-07T07:13:16;99615.53;;;8.59;100.00
49723;BME280;43484;43.608;1.458;2022-12-07T07:15:42;99621.47;;;8.58;100.00
49723;BME280;43484;43.608;1.458;2022-12-07T07:18:09;99624.22;;;8.64;100.00
49723;BME280;43484;43.608;1.458;2022-12-07T07:20:36;99626.78;;;8.64;100.00
49723;BME280;43484;43.608;1.458;2022-12-07T07:23:03;99625.84;;;8.62;100.00
49723;BME280;43484;43.608;1.458;2022-12-07T07:25:29;99626.78;;;8.64;100.00
49723;BME280;43484;43.608;1.458;2022-12-07T07:27:56;99625.91;;;8.64;100.00
49723;BME280;43484;43.608;1.458;2022-12-07T07:30:23;99623.97;;;8.57;100.00
49723;BME280;43484;43.608;1.458;2022-12-07T07:32:50;99624.13;;;8.61;100.00
49723;BME280;43484;43.608;1.458;2022-12-07T07:35:17;99621.56;;;8.61;100.00
49723;BME280;43484;43.608;1.458;2022-12-07T07:37:43;99624.06;;;8.60;100.00
49723;BME280;43484;43.608;1.458;2022-12-07T07:40:10;99626.66;;;8.61;100.00
49723;BME280;43484;43.608;1.458;2022-12-07T07:42:37;99620.59;;;8.58;100.00
49723;BME280;43484;43.608;1.458;2022-12-07T07:45:04;99619.78;;;8.59;100.00
49723;BME280;43484;43.608;1.458;2022-12-07T07:47:31;99625.84;;;8.62;100.00
49723;BME280;43484;43.608;1.458;2022-12-07T07:49:58;99621.53;;;8.60;100.00
49723;BME280;43484;43.608;1.458;2022-12-07T07:52:25;99619.88;;;8.62;100.00
49723;BME280;43484;43.608;1.458;2022-12-07T07:54:51;99621.66;;;8.64;100.00
49723;BME280;43484;43.608;1.458;2022-12-07T07:57:18;99617.44;;;8.65;100.00
49723;BME280;43484;43.608;1.458;2022-12-07T07:59:44;99621.88;;;8.70;100.00
49723;BME280;43484;43.608;1.458;2022-12-07T08:02:16;99630.75;;;8.81;100.00
49723;BME280;43484;43.608;1.458;2022-12-07T08:04:44;99629.63;;;8.73;100.00
49723;BME280;43484;43.608;1.458;2022-12-07T08:07:12;99633.06;;;8.74;100.00
49723;BME280;43484;43.608;1.458;2022-12-07T08:09:39;99627.09;;;8.73;100.00
49723;BME280;43484;43.608;1.458;2022-12-07T08:12:05;99627.31;;;8.81;100.00
49723;BME280;43484;43.608;1.458;2022-12-07T08:14:32;99631.72;;;8.85;100.00
49723;BME280;43484;43.608;1.458;2022-12-07T08:17:00;99621.50;;;8.85;100.00
49723;BME280;43484;43.608;1.458;2022-12-07T08:19:26;99637.03;;;8.91;100.00
49723;BME280;43484;43.608;1.458;2022-12-07T08:21:53;99638.91;;;8.97;100.00
49723;BME280;43484;43.608;1.458;2022-12-07T08:24:22;99650.94;;;8.99;100.00
49723;BME280;43484;43.608;1.458;2022-12-07T08:26:49;99650.63;;;8.90;100.00
49723;BME280;43484;43.608;1.458;2022-12-07T08:29:17;99659.31;;;8.95;100.00
49723;BME280;43484;43.608;1.458;2022-12-07T08:31:43;99680.25;;;9.10;100.00
49723;BME280;43484;43.608;1.458;2022-12-07T08:34:11;99688.00;;;9.13;100.00
49723;BME280;43484;43.608;1.458;2022-12-07T08:36:38;99691.13;;;9.05;100.00
49723;BME280;43484;43.608;1.458;2022-12-07T08:39:05;99713.38;;;9.07;100.00
49723;BME280;43484;43.608;1.458;2022-12-07T08:41:52;99709.78;;;9.02;100.00
49723;BME280;43484;43.608;1.458;2022-12-07T08:44:18;99710.25;;;8.91;100.00
49723;BME280;43484;43.608;1.458;2022-12-07T08:46:52;99708.34;;;9.10;100.00
49723;BME280;43484;43.608;1.458;2022-12-07T08:49:27;99709.78;;;9.02;100.00
49723;BME280;43484;43.608;1.458;2022-12-07T08:51:57;99711.50;;;9.03;100.00
49723;BME280;43484;43.608;1.458;2022-12-07T08:54:24;99708.44;;;9.13;100.00
49723;BME280;43484;43.608;1.458;2022-12-07T08:56:51;99709.19;;;9.09;100.00
49723;BME280;43484;43.608;1.458;2022-12-07T08:59:25;99714.34;;;9.11;100.00
49723;BME280;43484;43.608;1.458;2022-12-07T09:01:52;99718.75;;;8.91;100.00
49723;BME280;43484;43.608;1.458;2022-12-07T09:04:19;99720.66;;;8.97;100.00
49723;BME280;43484;43.608;1.458;2022-12-07T09:06:47;99717.13;;;9.18;100.00
49723;BME280;43484;43.608;1.458;2022-12-07T09:09:14;99712.75;;;9.14;100.00
49723;BME280;43484;43.608;1.458;2022-12-07T09:11:41;99717.69;;;9.10;100.00
49723;BME280;43484;43.608;1.458;2022-12-07T09:14:08;99722.50;;;9.26;100.00
49723;BME280;43484;43.608;1.458;2022-12-07T09:16:34;99726.06;;;9.31;100.00
49723;BME280;43484;43.608;1.458;2022-12-07T09:19:01;99729.09;;;9.44;100.00
49723;BME280;43484;43.608;1.458;2022-12-07T09:21:28;99722.78;;;9.35;100.00
49723;BME280;43484;43.608;1.458;2022-12-07T09:23:54;99723.66;;;9.35;100.00
49723;BME280;43484;43.608;1.458;2022-12-07T09:26:21;99725.56;;;9.41;100.00
49723;BME280;43484;43.608;1.458;2022-12-07T09:28:48;99728.91;;;9.40;100.00
49723;BME280;43484;43.608;1.458;2022-12-07T09:31:14;99727.97;;;9.38;100.00
49723;BME280;43484;43.608;1.458;2022-12-07T09:33:58;99733.97;;;9.38;100.00
49723;BME280;43484;43.608;1.458;2022-12-07T09:36:26;99729.69;;;9.37;100.00
49723;BME280;43484;43.608;1.458;2022-12-07T09:38:53;99733.41;;;9.47;100.00
49723;BME280;43484;43.608;1.458;2022-12-07T09:41:21;99734.84;;;9.39;100.00
49723;BME280;43484;43.608;1.458;2022-12-07T09:43:49;99736.84;;;9.47;100.00
49723;BME280;43484;43.608;1.458;2022-12-07T09:46:19;99731.78;;;9.49;100.00
49723;BME280;43484;43.608;1.458;2022-12-07T09:48:47;99737.69;;;9.48;100.00
49723;BME280;43484;43.608;1.458;2022-12-07T09:51:18;99742.88;;;9.49;100.00
49723;BME280;43484;43.608;1.458;2022-12-07T09:53:50;99739.84;;;9.61;100.00
49723;BME280;43484;43.608;1.458;2022-12-07T09:56:18;99741.69;;;9.40;100.00
49723;BME280;43484;43.608;1.458;2022-12-07T09:58:46;99741.38;;;9.56;100.00
49723;BME280;43484;43.608;1.458;2022-12-07T10:01:21;99732.88;;;9.57;100.00
49723;BME280;43484;43.608;1.458;2022-12-07T10:03:52;99740.00;;;9.67;100.00
49723;BME280;43484;43.608;1.458;2022-12-07T10:06:19;99739.06;;;9.63;100.00
49723;BME280;43484;43.608;1.458;2022-12-07T10:08:46;99743.59;;;9.72;100.00
49723;BME280;43484;43.608;1.458;2022-12-07T10:11:13;99748.66;;;9.70;100.00
49723;BME280;43484;43.608;1.458;2022-12-07T10:13:43;99744.41;;;9.71;100.00
49723;BME280;43484;43.608;1.458;2022-12-07T10:18:51;99743.09;;;9.57;100.00
49723;BME280;43484;43.608;1.458;2022-12-07T10:21:20;99740.44;;;9.80;100.00
49723;BME280;43484;43.608;1.458;2022-12-07T10:24:00;99738.09;;;9.88;100.00
49723;BME280;43484;43.608;1.458;2022-12-07T10:26:34;99737.59;;;9.71;100.00
49723;BME280;43484;43.608;1.458;2022-12-07T10:29:13;99722.00;;;9.90;100.00
49723;BME280;43484;43.608;1.458;2022-12-07T10:31:41;99719.41;;;9.89;100.00
49723;BME280;43484;43.608;1.458;2022-12-07T10:34:37;99717.91;;;9.97;100.00
49723;BME280;43484;43.608;1.458;2022-12-07T10:42:16;99711.56;;;10.11;100.00
49723;BME280;43484;43.608;1.458;2022-12-07T10:44:44;99712.31;;;10.08;100.00
49723;BME280;43484;43.608;1.458;2022-12-07T10:57:36;99689.28;;;10.08;100.00
49723;BME280;43484;43.608;1.458;2022-12-07T11:00:25;99690.09;;;10.07;100.00
49723;BME280;43484;43.608;1.458;2022-12-07T11:05:54;99675.38;;;10.29;100.00
49723;BME280;43484;43.608;1.458;2022-12-07T11:08:51;99673.09;;;10.39;100.00
49723;BME280;43484;43.608;1.458;2022-12-07T11:17:03;99669.84;;;10.45;100.00
49723;BME280;43484;43.608;1.458;2022-12-07T11:36:11;99647.69;;;10.78;100.00
49723;BME280;43484;43.608;1.458;2022-12-07T11:38:57;99642.56;;;10.78;100.00
49723;BME280;43484;43.608;1.458;2022-12-07T11:41:35;99644.66;;;10.94;100.00
49723;BME280;43484;43.608;1.458;2022-12-07T11:44:31;99634.56;;;11.00;100.00
49723;BME280;43484;43.608;1.458;2022-12-07T11:47:08;99629.28;;;10.94;100.00
49723;BME280;43484;43.608;1.458;2022-12-07T11:49:56;99631.06;;;10.96;100.00
49723;BME280;43484;43.608;1.458;2022-12-07T11:52:37;99637.25;;;11.04;100.00
49723;BME280;43484;43.608;1.458;2022-12-07T11:55:23;99625.97;;;10.98;100.00
49723;BME280;43484;43.608;1.458;2022-12-07T11:58:02;99620.88;;;10.99;100.00
49723;BME280;43484;43.608;1.458;2022-12-07T12:00:29;99617.66;;;11.06;100.00
49723;BME280;43484;43.608;1.458;2022-12-07T12:03:12;99613.59;;;11.16;100.00
49723;BME280;43484;43.608;1.458;2022-12-07T12:05:41;99609.38;;;11.18;100.00
49723;BME280;43484;43.608;1.458;2022-12-07T12:08:31;99609.38;;;11.18;100.00
49723;BME280;43484;43.608;1.458;2022-12-07T12:22:44;99591.09;;;11.42;100.00
49723;BME280;43484;43.608;1.458;2022-12-07T12:25:21;99589.47;;;11.45;100.00
49723;BME280;43484;43.608;1.458;2022-12-07T12:27:50;99585.47;;;11.58;100.00
49723;BME280;43484;43.608;1.458;2022-12-07T12:30:29;99576.47;;;11.37;100.00
49723;BME280;43484;43.608;1.458;2022-12-07T12:33:25;99570.69;;;11.46;100.00
49723;BME280;43484;43.608;1.458;2022-12-07T12:51:50;99574.88;;;11.81;100.00
49723;BME280;43484;43.608;1.458;2022-12-07T13:04:51;99555.34;;;11.89;100.00
49723;BME280;43484;43.608;1.458;2022-12-07T13:34:01;99521.97;;;11.88;100.00
49723;BME280;43484;43.608;1.458;2022-12-07T13:36:33;99526.47;;;12.01;100.00
49723;BME280;43484;43.608;1.458;2022-12-07T13:41:42;99520.59;;;12.05;100.00
49723;BME280;43484;43.608;1.458;2022-12-07T13:44:14;99517.41;;;12.18;100.00
49723;BME280;43484;43.608;1.458;2022-12-07T13:46:47;99505.19;;;12.05;100.00
49723;BME280;43484;43.608;1.458;2022-12-07T13:51:49;99498.47;;;12.13;100.00
49723;BME280;43484;43.608;1.458;2022-12-07T13:54:17;99500.28;;;12.18;100.00
49723;BME280;43484;43.608;1.458;2022-12-07T13:56:50;99505.44;;;12.20;100.00
49723;BME280;43484;43.608;1.458;2022-12-07T13:59:21;99494.31;;;12.21;100.00
49723;BME280;43484;43.608;1.458;2022-12-07T14:01:49;99480.06;;;12.36;100.00
49723;BME280;43484;43.608;1.458;2022-12-07T14:06:53;99486.88;;;12.36;100.00
49723;BME280;43484;43.608;1.458;2022-12-07T14:09:23;99478.22;;;12.29;100.00
49723;BME280;43484;43.608;1.458;2022-12-07T14:11:52;99476.53;;;12.31;100.00
49723;BME280;43484;43.608;1.458;2022-12-07T14:14:30;99477.38;;;12.29;100.00
49723;BME280;43484;43.608;1.458;2022-12-07T14:17:15;99486.66;;;12.22;100.00
49723;BME280;43484;43.608;1.458;2022-12-07T14:19:58;99487.50;;;12.21;100.00
49723;BME280;43484;43.608;1.458;2022-12-07T14:22:33;99481.69;;;12.33;100.00
49723;BME280;43484;43.608;1.458;2022-12-07T14:27:48;99480.75;;;12.28;100.00
49723;BME280;43484;43.608;1.458;2022-12-07T14:30:17;99484.19;;;12.27;100.00
49723;BME280;43484;43.608;1.458;2022-12-07T14:32:44;99491.00;;;12.25;100.00
49723;BME280;43484;43.608;1.458;2022-12-07T14:35:16;99483.22;;;12.20;100.00
49723;BME280;43484;43.608;1.458;2022-12-07T14:37:46;99474.72;;;12.26;100.00
49723;BME280;43484;43.608;1.458;2022-12-07T14:40:17;99467.78;;;12.19;100.00
49723;BME280;43484;43.608;1.458;2022-12-07T14:42:45;99473.06;;;12.28;100.00
49723;BME280;43484;43.608;1.458;2022-12-07T14:45:15;99471.34;;;12.28;100.00
49723;BME280;43484;43.608;1.458;2022-12-07T14:47:42;99472.13;;;12.23;100.00
49723;BME280;43484;43.608;1.458;2022-12-07T14:50:29;99471.31;;;12.25;100.00
49723;BME280;43484;43.608;1.458;2022-12-07T14:53:06;99472.16;;;12.26;100.00
49723;BME280;43484;43.608;1.458;2022-12-07T14:55:51;99462.00;;;12.32;100.00
49723;BME280;43484;43.608;1.458;2022-12-07T14:58:18;99464.69;;;12.39;100.00
49723;BME280;43484;43.608;1.458;2022-12-07T15:00:45;99460.34;;;12.34;100.00
49723;BME280;43484;43.608;1.458;2022-12-07T15:03:11;99462.97;;;12.38;100.00
49723;BME280;43484;43.608;1.458;2022-12-07T15:05:40;99459.41;;;12.30;100.00
49723;BME280;43484;43.608;1.458;2022-12-07T15:08:13;99468.72;;;12.24;100.00
49723;BME280;43484;43.608;1.458;2022-12-07T15:10:40;99464.59;;;12.33;100.00
49723;BME280;43484;43.608;1.458;2022-12-07T15:13:08;99462.06;;;12.36;100.00
49723;BME280;43484;43.608;1.458;2022-12-07T15:15:54;99454.94;;;12.19;100.00
49723;BME280;43484;43.608;1.458;2022-12-07T15:18:22;99454.94;;;12.19;100.00
49723;BME280;43484;43.608;1.458;2022-12-07T15:20:49;99449.00;;;12.23;100.00
49723;BME280;43484;43.608;1.458;2022-12-07T15:23:17;99453.22;;;12.19;100.00
49723;BME280;43484;43.608;1.458;2022-12-07T15:25:46;99444.59;;;12.16;100.00
49723;BME280;43484;43.608;1.458;2022-12-07T15:28:13;99451.50;;;12.18;100.00
49723;BME280;43484;43.608;1.458;2022-12-07T15:30:42;99446.31;;;12.14;100.00
49723;BME280;43484;43.608;1.458;2022-12-07T15:33:10;99443.53;;;12.03;100.00
49723;BME280;43484;43.608;1.458;2022-12-07T15:35:41;99446.22;;;12.11;100.00
49723;BME280;43484;43.608;1.458;2022-12-07T15:38:08;99452.78;;;11.94;100.00
49723;BME280;43484;43.608;1.458;2022-12-07T15:40:35;99447.66;;;11.94;100.00
49723;BME280;43484;43.608;1.458;2022-12-07T15:43:03;99446.94;;;12.02;100.00
49723;BME280;43484;43.608;1.458;2022-12-07T15:45:30;99452.78;;;11.94;100.00
49723;BME280;43484;43.608;1.458;2022-12-07T15:47:56;99447.47;;;11.85;100.00